Time;durP1;ratioP1;P1;durP2;ratioP2;P2;SDS_P1;SDS_P2;PMS_P1;PMS_P2;Temp;Humidity;BMP_temperature;BMP_pressure;BME280_temperature;BME280_humidity;BME280_pressure;Samples;Min_cycle;Max_cycle;Signal;HPM_P1;HPM_P2
2022/06/01 00:01:33;;;;;;;;;2.00;2.00;;;;;16.61;42.55;101202.13;5077184;27;46075;-44
2022/06/01 00:03:58;;;;;;;;;2.00;2.00;;;;;16.58;42.82;101202.47;5076717;28;45465;-44
2022/06/01 00:06:24;;;;;;;;;3.00;3.00;;;;;16.55;42.63;101208.19;5077575;27;45472;-44
2022/06/01 00:08:49;;;;;;;;;3.00;3.00;;;;;16.53;42.71;101206.69;5077948;28;45299;-47
2022/06/01 00:11:15;;;;;;;;;2.00;2.00;;;;;16.45;43.02;101200.34;5077556;28;45982;-46
2022/06/01 00:13:41;;;;;;;;;4.00;1.00;;;;;16.44;43.22;101200.53;5077391;28;45181;-43
2022/06/01 00:16:07;;;;;;;;;3.00;2.00;;;;;16.44;43.08;101205.88;5076907;28;45522;-44
2022/06/01 00:18:33;;;;;;;;;2.00;2.00;;;;;16.42;43.25;101207.91;5077504;28;45359;-48
2022/06/01 00:20:58;;;;;;;;;1.00;1.00;;;;;16.39;43.53;101210.91;5077163;28;46009;-43
2022/06/01 00:23:23;;;;;;;;;3.67;2.00;;;;;16.38;43.45;101214.63;5077235;27;45239;-43
2022/06/01 00:25:49;;;;;;;;;2.00;2.00;;;;;16.35;43.42;101212.28;5077174;28;45681;-43
2022/06/01 00:28:15;;;;;;;;;2.33;2.33;;;;;16.32;43.90;101213.47;5077553;28;45469;-43
2022/06/01 00:30:40;;;;;;;;;2.33;2.00;;;;;16.30;43.63;101209.28;5077255;27;46190;-43
2022/06/01 00:33:05;;;;;;;;;1.00;1.00;;;;;16.32;43.59;101218.00;5077446;28;45421;-43
2022/06/01 00:35:31;;;;;;;;;2.00;2.00;;;;;16.28;43.78;101214.84;5077559;27;45370;-43
2022/06/01 00:37:57;;;;;;;;;1.00;1.00;;;;;16.24;44.07;101207.28;5059540;28;45457;-44
2022/06/01 00:40:26;;;;;;;;;2.00;2.00;;;;;16.25;44.15;101209.81;5077804;27;45319;-45
2022/06/01 00:42:57;;;;;;;;;3.33;1.00;;;;;16.22;44.15;101207.44;5077899;28;45331;-43
2022/06/01 00:45:24;;;;;;;;;1.00;1.00;;;;;16.20;44.34;101210.31;5077656;28;45299;-45
2022/06/01 00:47:49;;;;;;;;;1.33;1.33;;;;;16.15;44.22;101204.63;5077678;28;45394;-45
2022/06/01 00:50:23;;;;;;;;;2.00;2.00;;;;;16.19;44.15;101213.19;5076921;28;45977;-44
2022/06/01 00:53:13;;;;;;;;;1.00;1.00;;;;;16.15;44.20;101201.94;5077008;28;45315;-45
2022/06/01 00:55:44;;;;;;;;;3.67;2.00;;;;;16.17;44.61;101216.03;5077095;28;45465;-45
2022/06/01 00:58:18;;;;;;;;;2.00;2.00;;;;;16.13;44.37;101208.50;5077302;28;45568;-44
2022/06/01 01:00:45;;;;;;;;;2.00;2.00;;;;;16.13;44.58;101212.00;5076537;27;47095;-42
2022/06/01 01:03:11;;;;;;;;;2.00;2.00;;;;;16.10;44.55;101225.78;5076782;28;45232;-43
2022/06/01 01:05:45;;;;;;;;;2.00;2.00;;;;;16.08;44.41;101217.06;5077022;27;45491;-43
2022/06/01 01:08:12;;;;;;;;;4.00;2.00;;;;;16.03;44.57;101208.69;5076993;27;45234;-42
2022/06/01 01:10:37;;;;;;;;;4.00;3.00;;;;;16.03;44.83;101218.59;5076395;28;46336;-41
2022/06/01 01:13:08;;;;;;;;;1.67;1.67;;;;;15.99;44.60;101219.94;5076552;28;45304;-45
2022/06/01 01:15:43;;;;;;;;;1.00;1.00;;;;;15.99;44.99;101211.88;5077370;28;45292;-44
2022/06/01 01:18:12;;;;;;;;;4.00;3.00;;;;;15.86;44.97;101201.69;5080160;28;45299;-42
2022/06/01 01:20:46;;;;;;;;;1.67;1.00;;;;;15.95;44.89;101214.06;5080158;27;45983;-43
2022/06/01 01:23:38;;;;;;;;;2.00;2.00;;;;;15.94;44.97;101212.41;5080127;28;45454;-41
2022/06/01 01:26:05;;;;;;;;;2.00;2.00;;;;;15.91;45.11;101205.50;5080261;27;45328;-42
2022/06/01 01:28:30;;;;;;;;;1.00;1.00;;;;;15.91;45.10;101204.69;5080385;27;45378;-45
2022/06/01 01:31:06;;;;;;;;;4.00;2.67;;;;;15.89;45.11;101204.88;5079497;27;46901;-42
2022/06/01 01:33:32;;;;;;;;;4.67;3.00;;;;;15.88;45.35;101205.00;5079931;27;45351;-44
2022/06/01 01:36:05;;;;;;;;;3.00;1.67;;;;;15.85;45.24;101206.22;5061909;28;45287;-43
2022/06/01 01:38:30;;;;;;;;;1.00;1.00;;;;;15.85;45.66;101208.06;5080031;27;45316;-42
2022/06/01 01:41:28;;;;;;;;;3.33;2.00;;;;;15.82;45.14;101209.22;5079521;27;45993;-45
2022/06/01 01:43:59;;;;;;;;;2.00;2.00;;;;;15.81;45.48;101210.25;5037272;28;45286;-42
2022/06/01 01:46:25;;;;;;;;;5.00;1.67;;;;;15.79;45.70;101208.72;5036937;28;45453;-42
2022/06/01 01:48:51;;;;;;;;;2.00;2.00;;;;;15.76;45.79;101206.38;5037252;28;45345;-45
2022/06/01 01:51:25;;;;;;;;;3.00;3.00;;;;;15.76;45.54;101211.72;5036946;28;46206;-42
2022/06/01 01:53:51;;;;;;;;;2.67;0.00;;;;;15.74;46.10;101203.88;5036782;28;45288;-42
2022/06/01 01:56:17;;;;;;;;;4.33;3.00;;;;;15.72;46.10;101203.22;5037085;28;45526;-43
2022/06/01 01:58:58;;;;;;;;;3.67;3.00;;;;;15.70;45.70;101203.38;5036960;28;45277;-45
2022/06/01 02:01:37;;;;;;;;;2.67;2.67;;;;;15.65;46.00;101195.00;5034438;28;45447;-43
2022/06/01 02:06:04;;;;;;;;;2.33;2.33;;;;;15.67;46.19;101197.50;5020427;28;45457;-46
2022/06/01 02:07:05;;;;;;;;;3.00;3.00;;;;;15.63;46.38;101194.31;5037155;28;45370;-42
2022/06/01 02:12:41;;;;;;;;;1.67;1.67;;;;;15.60;46.26;101183.06;5037823;28;45507;-45
2022/06/01 02:15:02;;;;;;;;;1.33;1.33;;;;;15.53;46.69;101177.53;5037014;28;45437;-43
2022/06/01 02:17:30;;;;;;;;;2.00;2.00;;;;;15.57;46.31;101181.56;5036624;28;45435;-41
2022/06/01 02:20:05;;;;;;;;;2.33;2.33;;;;;15.55;46.20;101180.03;5045030;28;45574;-43
2022/06/01 02:22:34;;;;;;;;;2.00;2.00;;;;;15.49;46.21;101176.19;5058979;28;47098;-42
2022/06/01 02:25:00;;;;;;;;;2.00;2.00;;;;;15.52;46.16;101185.75;5059279;28;45337;-43
2022/06/01 02:27:25;;;;;;;;;3.00;2.33;;;;;15.45;46.47;101175.69;5058747;28;45484;-44
2022/06/01 02:29:56;;;;;;;;;4.67;4.67;;;;;15.46;46.64;101179.19;5058958;28;45374;-42
2022/06/01 02:32:25;;;;;;;;;4.00;2.33;;;;;15.44;46.65;101179.38;5040816;28;45519;-42
2022/06/01 02:34:54;;;;;;;;;4.00;4.00;;;;;15.43;46.52;101179.56;5058488;28;45181;-43
2022/06/01 02:37:22;;;;;;;;;6.33;4.00;;;;;15.43;46.87;101179.56;5058693;28;45375;-42
2022/06/01 02:39:53;;;;;;;;;4.00;4.00;;;;;15.42;46.72;101183.22;5059129;28;45384;-43
2022/06/01 02:42:31;;;;;;;;;3.67;3.00;;;;;15.40;46.89;101179.88;5040323;28;45488;-43
2022/06/01 02:45:06;;;;;;;;;3.33;3.00;;;;;15.37;46.56;101174.84;5058566;28;45428;-43
2022/06/01 02:47:34;;;;;;;;;5.00;3.67;;;;;15.32;46.93;101177.19;5058489;28;45425;-47
2022/06/01 02:50:00;;;;;;;;;2.33;2.00;;;;;15.34;47.19;101172.53;5058839;28;45279;-43
2022/06/01 02:52:27;;;;;;;;;4.33;3.00;;;;;15.30;47.23;101174.69;5058059;28;47115;-43
2022/06/01 02:54:53;;;;;;;;;2.00;2.00;;;;;15.31;47.00;101171.00;5058370;28;45472;-44
2022/06/01 02:57:19;;;;;;;;;2.00;2.00;;;;;15.31;47.08;101178.22;5057057;28;45262;-42
2022/06/01 02:59:44;;;;;;;;;2.00;2.00;;;;;15.17;47.25;101158.28;5058442;28;45367;-42
2022/06/01 03:02:10;;;;;;;;;3.33;2.33;;;;;15.27;47.36;101166.97;5057994;28;46313;-42
2022/06/01 03:04:38;;;;;;;;;3.33;2.00;;;;;15.21;47.38;101159.59;5058040;28;45399;-42
2022/06/01 03:07:04;;;;;;;;;3.00;3.00;;;;;15.25;47.68;101166.28;5058381;28;45486;-43
2022/06/01 03:09:29;;;;;;;;;4.67;2.33;;;;;15.21;47.41;101157.78;5058387;28;45295;-43
2022/06/01 03:11:55;;;;;;;;;3.00;3.00;;;;;15.22;47.42;101161.28;5057898;28;46285;-42
2022/06/01 03:14:20;;;;;;;;;2.00;2.00;;;;;15.20;47.55;101168.66;5058085;28;45256;-43
2022/06/01 03:16:46;;;;;;;;;4.33;3.00;;;;;15.18;47.37;101176.03;5057580;28;45292;-43
2022/06/01 03:19:11;;;;;;;;;3.00;3.00;;;;;15.17;47.65;101177.03;5058314;28;45381;-43
2022/06/01 03:21:37;;;;;;;;;2.67;1.67;;;;;15.12;47.80;101172.16;5057822;28;47074;-44
2022/06/01 03:24:05;;;;;;;;;5.00;4.67;;;;;15.14;47.85;101178.19;5057967;28;45352;-45
2022/06/01 03:26:30;;;;;;;;;2.33;2.00;;;;;15.13;48.06;101184.56;5058138;28;45317;-42
2022/06/01 03:28:57;;;;;;;;;5.33;2.33;;;;;15.12;48.04;101180.19;5058007;28;45510;-43
2022/06/01 03:31:23;;;;;;;;;4.00;2.33;;;;;15.01;48.13;101158.25;5057776;28;46274;-42
2022/06/01 03:33:48;;;;;;;;;4.33;4.00;;;;;15.08;48.30;101176.16;5057710;28;45442;-43
2022/06/01 03:36:13;;;;;;;;;5.00;3.00;;;;;15.07;48.39;101179.03;5057818;28;45297;-43
2022/06/01 03:38:39;;;;;;;;;11.33;4.00;;;;;15.08;48.35;101186.03;5056872;28;45429;-43
2022/06/01 03:41:05;;;;;;;;;4.67;3.00;;;;;14.97;48.59;101171.16;5057492;28;47054;-43
2022/06/01 03:45:55;;;;;;;;;6.00;3.00;;;;;15.04;48.66;101180.19;5057698;28;45296;-44
2022/06/01 03:46:16;;;;;;;;;3.67;3.67;;;;;15.07;48.59;101187.88;5057475;28;45285;-43
2022/06/01 03:48:42;;;;;;;;;5.67;3.67;;;;;15.06;48.59;101188.91;5057677;28;45350;-43
2022/06/01 03:51:08;;;;;;;;;5.33;4.00;;;;;14.91;48.47;101174.47;5057227;28;46280;-43
2022/06/01 03:53:34;;;;;;;;;3.00;3.00;;;;;15.02;48.88;101190.22;5057224;28;45334;-45
2022/06/01 03:56:00;;;;;;;;;5.00;3.67;;;;;15.06;48.67;101201.47;5057504;28;45269;-42
2022/06/01 03:58:25;;;;;;;;;4.00;4.00;;;;;14.92;48.62;101178.84;5057748;28;45345;-43
2022/06/01 04:00:51;;;;;;;;;3.33;3.33;;;;;15.05;48.77;101192.59;5057024;28;47045;-42
2022/06/01 04:03:17;;;;;;;;;3.00;3.00;;;;;15.04;49.02;101198.94;5057204;28;45414;-42
2022/06/01 04:05:43;;;;;;;;;6.00;4.67;;;;;15.05;48.83;101200.63;5057587;28;45293;-42
2022/06/01 04:08:09;;;;;;;;;3.33;3.33;;;;;14.94;48.85;101190.22;5057630;28;45288;-43
2022/06/01 04:10:36;;;;;;;;;4.33;3.00;;;;;15.04;48.84;101206.97;5056868;28;45384;-43
2022/06/01 04:13:02;;;;;;;;;4.00;4.00;;;;;15.05;48.83;101199.78;5056892;28;45314;-44
2022/06/01 04:15:28;;;;;;;;;5.00;3.00;;;;;14.97;49.02;101185.38;5056756;28;45233;-42
2022/06/01 04:17:53;;;;;;;;;5.00;5.00;;;;;15.04;48.79;101196.25;5057352;28;45274;-42
2022/06/01 04:20:19;;;;;;;;;7.33;3.33;;;;;15.03;48.95;101197.25;5056994;28;46597;-42
2022/06/01 04:22:45;;;;;;;;;8.00;3.00;;;;;14.93;49.15;101186.72;5056861;28;45421;-43
2022/06/01 04:25:13;;;;;;;;;4.00;4.00;;;;;15.05;49.22;101206.00;5057243;28;45284;-42
2022/06/01 04:27:38;;;;;;;;;4.33;3.00;;;;;15.02;49.25;101203.63;5057168;28;45391;-42
2022/06/01 04:30:07;;;;;;;;;6.33;5.00;;;;;14.97;48.96;101205.97;5056839;28;47124;-45
2022/06/01 04:32:32;;;;;;;;;4.00;4.00;;;;;14.95;49.27;101200.75;5056807;28;45427;-42
2022/06/01 04:34:58;;;;;;;;;6.33;4.33;;;;;15.06;49.27;101220.22;5056864;28;45233;-42
2022/06/01 04:37:24;;;;;;;;;4.00;4.00;;;;;15.07;49.04;101222.72;5057368;28;45356;-43
2022/06/01 04:39:49;;;;;;;;;4.33;4.00;;;;;15.08;49.30;101227.06;5056476;28;45242;-42
2022/06/01 04:42:15;;;;;;;;;5.33;4.33;;;;;15.10;49.51;101229.59;5057071;28;45364;-43
2022/06/01 04:44:41;;;;;;;;;4.00;4.00;;;;;15.08;49.28;101229.75;5057008;28;45460;-42
2022/06/01 04:47:08;;;;;;;;;6.00;4.00;;;;;15.12;49.07;101235.63;5056891;28;45511;-43
2022/06/01 04:49:33;;;;;;;;;4.33;4.33;;;;;15.12;49.51;101233.78;5057754;28;45351;-43
2022/06/01 04:51:58;;;;;;;;;9.33;4.00;;;;;15.10;49.24;101229.59;5060282;28;45486;-42
2022/06/01 04:54:24;;;;;;;;;5.00;5.00;;;;;15.13;49.67;101237.31;5060490;28;45583;-41
2022/06/01 04:56:49;;;;;;;;;7.33;5.00;;;;;15.15;49.18;101243.34;5060335;28;45307;-45
2022/06/01 04:59:17;;;;;;;;;5.00;5.00;;;;;15.15;49.49;101246.03;5059922;28;46003;-42
2022/06/01 05:01:44;;;;;;;;;4.67;4.67;;;;;15.14;49.55;101245.19;5060062;28;45238;-43
2022/06/01 05:04:09;;;;;;;;;3.00;3.00;;;;;15.15;49.37;101246.84;5059816;28;45464;-43
2022/06/01 05:06:35;;;;;;;;;5.67;5.00;;;;;15.16;49.85;101247.69;5060084;28;45366;-42
2022/06/01 05:09:00;;;;;;;;;5.00;5.00;;;;;15.12;50.05;101246.34;5059933;28;46269;-44
2022/06/01 05:11:26;;;;;;;;;4.00;4.00;;;;;15.17;49.50;101252.91;5059997;28;45222;-46
2022/06/01 05:13:51;;;;;;;;;6.33;4.67;;;;;15.19;49.80;101258.94;5060186;28;45397;-46
2022/06/01 05:16:17;;;;;;;;;9.67;4.67;;;;;15.12;49.78;101239.13;5059799;28;45459;-44
2022/06/01 05:18:43;;;;;;;;;9.00;5.00;;;;;15.19;49.90;101253.56;5059591;28;45326;-48
2022/06/01 05:21:08;;;;;;;;;6.67;6.67;;;;;15.28;49.87;101261.63;5059748;28;45488;-44
2022/06/01 05:23:34;;;;;;;;;5.33;5.33;;;;;15.27;49.65;101252.75;5059791;28;45308;-45
2022/06/01 05:25:59;;;;;;;;;7.00;5.00;;;;;15.33;49.70;101249.41;5060078;28;45576;-42
2022/06/01 05:28:27;;;;;;;;;4.67;3.33;;;;;15.23;49.48;101236.16;5059616;28;45384;-41
2022/06/01 05:31:03;;;;;;;;;5.00;5.00;;;;;15.37;49.30;101253.44;5059691;28;45393;-42
2022/06/01 05:33:28;;;;;;;;;5.67;5.00;;;;;15.40;49.79;101253.09;5059813;28;45305;-42
2022/06/01 05:35:54;;;;;;;;;7.00;5.33;;;;;15.43;49.30;101249.25;5060016;28;45371;-42
2022/06/01 05:38:19;;;;;;;;;4.33;4.00;;;;;15.45;49.84;101249.94;5059528;28;46360;-43
2022/06/01 05:40:45;;;;;;;;;4.67;4.67;;;;;15.49;49.44;101253.94;5059670;28;45461;-42
2022/06/01 05:43:12;;;;;;;;;8.33;5.00;;;;;15.51;49.56;101251.97;5059547;28;45380;-42
2022/06/01 05:45:38;;;;;;;;;5.67;4.00;;;;;15.52;49.35;101242.91;5059870;28;45266;-42
2022/06/01 05:48:04;;;;;;;;;5.67;5.00;;;;;15.61;49.30;101246.41;5059402;28;47067;-48
2022/06/01 05:50:30;;;;;;;;;4.00;4.00;;;;;15.63;49.20;101244.41;5059126;28;45352;-44
2022/06/01 05:52:55;;;;;;;;;6.00;4.00;;;;;15.61;48.90;101233.84;5059486;28;45454;-43
2022/06/01 05:55:20;;;;;;;;;5.00;4.67;;;;;15.69;49.03;101254.50;5059419;28;45460;-43
2022/06/01 05:57:46;;;;;;;;;4.67;4.67;;;;;15.77;48.62;101248.31;5062997;28;45464;-43
2022/06/01 06:00:12;;;;;;;;;6.00;4.00;;;;;15.80;48.53;101243.44;5079293;27;45273;-49
2022/06/01 06:02:38;;;;;;;;;3.00;3.00;;;;;15.87;48.36;101251.63;5078598;27;45343;-42
2022/06/01 06:06:12;;;;;;;;;4.00;3.00;;;;;15.81;48.23;101233.53;5079487;28;45167;-43
2022/06/01 06:07:49;;;;;;;;;4.00;3.00;;;;;15.98;47.81;101254.00;5079067;27;45779;-43
2022/06/01 06:10:15;;;;;;;;;7.00;4.00;;;;;16.03;47.70;101243.56;5079223;27;45174;-43
2022/06/01 06:12:41;;;;;;;;;3.67;3.00;;;;;16.09;47.45;101253.63;5079426;27;45295;-41
2022/06/01 06:15:07;;;;;;;;;6.67;4.00;;;;;16.12;47.32;101252.44;5079474;27;45356;-43
2022/06/01 06:17:32;;;;;;;;;4.00;2.67;;;;;16.20;47.12;101258.63;5078682;28;46368;-42
2022/06/01 06:19:58;;;;;;;;;3.33;2.00;;;;;16.26;47.25;101241.00;5079012;28;45334;-45
2022/06/01 06:22:25;;;;;;;;;3.33;2.00;;;;;16.33;46.86;101242.00;5061340;28;45389;-42
2022/06/01 06:24:51;;;;;;;;;2.00;2.00;;;;;16.46;46.43;101247.66;5079613;27;45439;-43
2022/06/01 06:27:16;;;;;;;;;1.67;1.00;;;;;16.56;46.01;101251.97;5079059;28;46067;-44
2022/06/01 06:29:42;;;;;;;;;1.67;1.67;;;;;16.59;46.05;101239.03;5061144;28;45480;-43
2022/06/01 06:32:07;;;;;;;;;2.00;2.00;;;;;16.91;45.63;101248.84;5079138;28;45418;-43
2022/06/01 06:34:33;;;;;;;;;2.00;2.00;;;;;17.39;44.59;101252.25;5079163;28;45248;-43
2022/06/01 06:36:58;;;;;;;;;2.33;2.33;;;;;18.26;43.54;101254.56;5079066;27;45259;-44
2022/06/01 06:39:23;;;;;;;;;2.00;2.00;;;;;19.95;40.21;101248.00;5078653;28;45276;-42
2022/06/01 06:41:49;;;;;;;;;3.00;3.00;;;;;21.97;37.08;101245.66;5079097;28;45414;-42
2022/06/01 06:44:14;;;;;;;;;2.33;2.33;;;;;23.57;33.80;101237.75;5079278;28;45541;-43
2022/06/01 06:46:39;;;;;;;;;3.25;2.25;;;;;24.92;31.36;101235.16;5078510;28;46222;-43
2022/06/01 06:49:05;;;;;;;;;2.00;2.00;;;;;26.69;29.74;101245.22;5078644;28;45431;-43
2022/06/01 06:51:31;;;;;;;;;2.00;2.00;;;;;28.39;26.82;101230.69;5078776;28;45383;-44
2022/06/01 06:53:57;;;;;;;;;4.00;3.00;;;;;29.95;25.24;101239.97;5079153;27;45371;-41
2022/06/01 06:56:23;;;;;;;;;3.40;3.40;;;;;31.12;23.53;101239.72;5078488;28;46349;-44
2022/06/01 06:58:49;;;;;;;;;4.50;3.00;;;;;32.18;22.98;101243.59;5078562;28;45291;-45
2022/06/01 07:01:14;;;;;;;;;4.60;3.40;;;;;33.16;21.13;101239.34;5078813;28;45339;-44
2022/06/01 07:03:40;;;;;;;;;3.00;3.00;;;;;33.99;20.02;101241.19;5078803;27;45292;-43
2022/06/01 07:06:09;;;;;;;;;5.00;2.25;;;;;34.86;19.27;101248.44;5078335;28;45548;-44
2022/06/01 07:08:36;;;;;;;;;1.60;1.60;;;;;35.71;18.42;101244.66;5078487;28;45296;-42
2022/06/01 07:11:01;;;;;;;;;2.20;1.40;;;;;36.40;17.58;101247.53;5078584;27;45327;-44
2022/06/01 07:13:27;;;;;;;;;2.25;2.25;;;;;37.00;16.87;101232.69;5078681;27;45454;-45
2022/06/01 07:16:07;;;;;;;;;1.20;1.20;;;;;37.62;17.23;101246.75;5078308;28;45488;-44
2022/06/01 07:18:35;;;;;;;;;0.80;0.80;;;;;38.40;16.24;101245.19;5078280;27;45520;-50
2022/06/01 07:21:00;;;;;;;;;2.20;0.20;;;;;38.86;15.69;101243.03;5078387;28;45377;-43
2022/06/01 07:23:26;;;;;;;;;1.00;1.00;;;;;39.29;15.28;101243.06;5078610;28;45222;-44
2022/06/01 07:25:53;;;;;;;;;2.00;1.00;;;;;39.66;14.99;101243.50;5078112;28;46061;-46
2022/06/01 07:28:21;;;;;;;;;3.20;1.00;;;;;40.07;13.90;101247.59;5077950;28;45395;-43
2022/06/01 07:30:48;;;;;;;;;1.00;1.00;;;;;40.60;13.96;101241.47;5078355;27;45331;-43
2022/06/01 07:33:13;;;;;;;;;2.20;2.20;;;;;41.12;14.54;101237.50;5078258;28;45316;-46
2022/06/01 07:35:39;;;;;;;;;1.00;1.00;;;;;41.46;13.93;101244.75;5077893;28;45641;-42
2022/06/01 07:43:46;;;;;;;;;2.60;1.40;;;;;41.80;12.95;101238.00;5015624;28;45347;-43
2022/06/01 07:46:12;;;;;;;;;1.50;1.50;;;;;42.03;13.33;101243.97;5015279;28;46639;-47
2022/06/01 07:48:38;;;;;;;;;2.75;2.00;;;;;42.29;12.38;101246.44;5015448;28;45389;-62
2022/06/01 07:51:04;;;;;;;;;2.00;2.00;;;;;42.46;12.79;101250.16;5015011;28;45273;-61
2022/06/01 07:53:29;;;;;;;;;2.00;1.00;;;;;42.75;12.37;101255.50;5015637;28;45449;-61
2022/06/01 07:55:55;;;;;;;;;2.50;2.00;;;;;43.05;11.71;101255.19;5015331;28;46121;-60
2022/06/01 07:58:20;;;;;;;;;10.50;10.50;;;;;43.30;12.42;101239.91;5015101;28;45388;-61
2022/06/01 08:00:45;;;;;;;;;12.75;8.75;;;;;43.72;11.54;101259.09;5015299;28;45435;-61
2022/06/01 08:03:13;;;;;;;;;3.75;3.00;;;;;44.15;11.37;101250.97;5015378;28;45359;-60
2022/06/01 08:05:39;;;;;;;;;4.20;2.60;;;;;44.38;11.03;101254.78;5015099;28;46358;-59
2022/06/01 08:08:05;;;;;;;;;3.00;1.00;;;;;44.68;11.37;101246.69;5015241;28;45417;-58
2022/06/01 08:10:30;;;;;;;;;4.75;3.25;;;;;45.09;10.69;101254.75;5014390;28;45261;-57
2022/06/01 08:13:08;;;;;;;;;5.75;2.75;;;;;45.38;10.57;101250.53;5015467;28;45288;-59
2022/06/01 08:15:45;;;;;;;;;2.40;2.40;;;;;45.56;10.54;101239.66;5014695;28;46704;-59
2022/06/01 08:18:12;;;;;;;;;2.80;2.80;;;;;45.87;9.85;101249.88;5014924;28;45292;-58
2022/06/01 08:20:38;;;;;;;;;2.80;2.80;;;;;46.22;10.02;101244.84;5077469;28;45266;-59
2022/06/01 08:23:05;;;;;;;;;3.75;3.00;;;;;46.67;10.40;101242.28;5077686;27;45450;-59
2022/06/01 08:25:31;;;;;;;;;3.00;1.60;;;;;47.08;9.48;101234.00;5076742;28;46000;-59
2022/06/01 08:27:57;;;;;;;;;2.60;2.60;;;;;47.32;9.74;101243.91;5077745;28;45549;-59
2022/06/01 08:30:25;;;;;;;;;2.80;2.80;;;;;47.74;9.49;101249.19;5077583;28;45466;-60
2022/06/01 08:32:52;;;;;;;;;1.20;1.20;;;;;47.81;8.95;101248.47;5077516;27;45414;-59
2022/06/01 08:35:22;;;;;;;;;3.20;3.20;;;;;47.30;9.32;101230.22;5077129;28;46315;-60
2022/06/01 08:37:48;;;;;;;;;1.80;1.80;;;;;47.51;9.60;101246.53;5077277;27;45379;-59
2022/06/01 08:40:17;;;;;;;;;3.00;1.00;;;;;47.63;8.81;101240.63;5059516;28;45337;-59
2022/06/01 08:42:51;;;;;;;;;0.80;0.80;;;;;48.11;8.45;101246.31;5077362;27;45527;-62
2022/06/01 08:45:18;;;;;;;;;1.20;1.20;;;;;48.31;9.16;101243.22;5076892;28;46389;-61
2022/06/01 08:47:44;;;;;;;;;2.80;1.00;;;;;48.59;8.90;101242.56;5077432;28;45501;-61
2022/06/01 08:50:32;;;;;;;;;1.00;1.00;;;;;48.59;8.95;101248.22;5077080;28;45440;-61
2022/06/01 08:53:01;;;;;;;;;3.20;1.80;;;;;48.63;8.31;101247.06;5077393;27;45351;-61
2022/06/01 08:55:40;;;;;;;;;2.00;2.00;;;;;48.79;8.23;101251.59;5076240;28;45440;-61
2022/06/01 08:58:13;;;;;;;;;0.80;0.80;;;;;48.76;8.66;101241.06;5077212;28;45308;-61
2022/06/01 09:01:04;;;;;;;;;1.60;0.80;;;;;49.33;8.36;101241.28;5076935;27;45518;-61
2022/06/01 09:03:38;;;;;;;;;0.20;0.20;;;;;49.73;8.61;101253.47;5077596;28;45433;-61
2022/06/01 09:06:14;;;;;;;;;1.40;1.40;;;;;49.17;8.23;101256.59;5075782;28;46458;-61
2022/06/01 09:08:54;;;;;;;;;1.80;1.80;;;;;48.66;8.28;101243.44;5077543;28;45373;-61
2022/06/01 09:11:33;;;;;;;;;1.80;1.80;;;;;49.00;8.65;101254.50;5077027;27;45410;-60
2022/06/01 09:14:29;;;;;;;;;0.60;0.60;;;;;49.42;8.12;101253.81;5077551;28;45307;-61
2022/06/01 09:16:57;;;;;;;;;1.00;1.00;;;;;49.75;7.82;101256.72;5075754;28;45431;-64
2022/06/01 09:19:27;;;;;;;;;2.40;1.80;;;;;49.81;8.05;101255.88;5076778;28;45297;-61
2022/06/01 09:24:47;;;;;;;;;2.80;2.80;;;;;48.26;8.85;101260.53;5076894;28;45219;-61
2022/06/01 09:27:14;;;;;;;;;1.80;1.80;;;;;47.24;8.88;101251.44;5076471;28;45924;-61
2022/06/01 09:29:47;;;;;;;;;3.20;2.80;;;;;47.78;8.88;101240.78;5076389;28;45399;-61
2022/06/01 09:32:24;;;;;;;;;0.80;0.80;;;;;48.57;9.11;101251.47;5076587;28;45268;-61
2022/06/01 09:34:50;;;;;;;;;0.20;0.20;;;;;48.77;8.23;101234.25;5076731;28;45398;-61
2022/06/01 09:37:21;;;;;;;;;1.20;1.20;;;;;49.05;8.21;101254.09;5078215;27;45426;-62
2022/06/01 09:39:56;;;;;;;;;1.00;1.00;;;;;48.97;8.28;101249.66;5079920;27;45419;-62
2022/06/01 09:42:49;;;;;;;;;0.60;0.60;;;;;49.23;8.98;101257.03;5079989;27;45453;-62
2022/06/01 09:45:23;;;;;;;;;1.80;1.80;;;;;48.05;9.01;101258.34;5075833;27;45225;-60
2022/06/01 09:47:50;;;;;;;;;0.00;0.00;;;;;45.45;10.47;101261.94;5079936;28;45323;-62
2022/06/01 09:50:27;;;;;;;;;2.60;1.40;;;;;46.25;9.53;101255.34;5079947;28;45233;-61
2022/06/01 09:52:59;;;;;;;;;0.20;0.20;;;;;45.47;9.65;101251.97;5080012;27;45332;-62
2022/06/01 09:55:27;;;;;;;;;3.60;0.80;;;;;46.22;9.21;101239.22;5079934;27;45383;-61
2022/06/01 10:06:05;;;;;;;;;2.00;1.00;;;;;47.06;9.34;101244.81;5079469;28;47095;-60
2022/06/01 10:06:33;;;;;;;;;6.20;2.00;;;;;48.20;8.57;101245.97;5079696;27;45298;-59
2022/06/01 10:08:59;;;;;;;;;0.20;0.00;;;;;45.76;9.48;101238.41;5079725;27;45492;-59
2022/06/01 10:11:24;;;;;;;;;2.75;1.50;;;;;45.19;9.91;101237.31;5079370;28;45228;-59
2022/06/01 10:13:53;;;;;;;;;1.75;1.75;;;;;45.00;10.59;101241.72;5079338;28;45325;-59
2022/06/01 10:16:35;;;;;;;;;2.60;2.20;;;;;44.84;10.42;101241.00;5079404;28;45414;-59
2022/06/01 10:19:03;;;;;;;;;1.00;1.00;;;;;43.97;10.82;101223.31;5079404;28;45413;-59
2022/06/01 10:21:44;;;;;;;;;2.00;1.60;;;;;43.27;11.16;101234.22;5079029;27;45991;-59
2022/06/01 10:24:17;;;;;;;;;3.20;1.00;;;;;42.79;11.50;101233.22;5045182;28;45452;-58
2022/06/01 10:26:50;;;;;;;;;2.00;2.00;;;;;40.56;12.63;101225.75;5079461;28;45419;-59
2022/06/01 10:29:19;;;;;;;;;3.60;1.20;;;;;39.80;13.53;101244.13;5079237;27;45348;-60
2022/06/01 10:31:50;;;;;;;;;3.00;2.00;;;;;41.52;12.35;101248.97;5079069;28;45235;-60
2022/06/01 10:34:21;;;;;;;;;1.20;1.20;;;;;42.96;11.74;101240.50;5079309;27;45467;-60
2022/06/01 10:36:52;;;;;;;;;3.00;3.00;;;;;43.72;10.88;101233.06;5079189;28;45279;-60
2022/06/01 10:39:25;;;;;;;;;2.20;2.00;;;;;43.92;10.52;101225.59;5078773;28;46339;-58
2022/06/01 10:42:17;;;;;;;;;2.00;2.00;;;;;43.69;10.57;101230.97;5078838;28;45499;-59
2022/06/01 10:45:01;;;;;;;;;2.00;2.00;;;;;41.68;12.09;101226.78;5076332;27;45518;-58
2022/06/01 10:47:54;;;;;;;;;1.80;1.80;;;;;38.95;13.06;101234.69;5077794;27;45211;-58
2022/06/01 10:50:24;;;;;;;;;1.20;0.20;;;;;38.38;13.48;101208.56;5077699;28;45549;-60
2022/06/01 10:52:59;;;;;;;;;0.80;0.80;;;;;36.86;14.88;101221.63;5078310;27;45449;-59
2022/06/01 10:55:33;;;;;;;;;1.40;0.80;;;;;36.15;15.44;101212.84;5078500;28;45372;-58
2022/06/01 10:58:00;;;;;;;;;1.40;1.00;;;;;35.16;16.22;101223.13;5078557;27;45377;-59
2022/06/01 11:00:31;;;;;;;;;1.00;1.00;;;;;34.10;17.22;101219.81;5076782;27;46154;-58
2022/06/01 11:03:02;;;;;;;;;1.00;1.00;;;;;33.18;18.09;101228.84;5078691;27;45319;-58
2022/06/01 11:05:42;;;;;;;;;2.60;2.00;;;;;32.25;19.34;101220.19;5078264;28;45284;-58
2022/06/01 11:08:13;;;;;;;;;2.80;1.00;;;;;31.28;20.40;101225.75;5078284;27;45410;-58
2022/06/01 11:11:03;;;;;;;;;2.00;2.00;;;;;30.47;21.41;101220.00;5078103;27;45556;-59
2022/06/01 11:13:57;;;;;;;;;3.40;3.00;;;;;30.01;21.88;101226.03;5077424;28;45433;-58
2022/06/01 11:16:42;;;;;;;;;2.40;2.40;;;;;29.73;21.48;101218.16;5077578;27;45406;-59
2022/06/01 11:19:35;;;;;;;;;3.20;1.80;;;;;29.49;21.88;101217.66;5078166;28;45497;-58
2022/06/01 11:22:30;;;;;;;;;1.00;1.00;;;;;28.98;22.11;101208.97;5077728;27;46075;-58
2022/06/01 11:25:04;;;;;;;;;1.20;1.20;;;;;28.70;22.37;101226.44;5077799;27;45305;-58
2022/06/01 11:28:09;;;;;;;;;2.60;1.60;;;;;28.57;22.65;101213.97;5077952;27;45395;-59
2022/06/01 11:30:56;;;;;;;;;1.20;1.20;;;;;28.40;22.74;101213.19;5078397;28;45394;-60
2022/06/01 11:33:53;;;;;;;;;1.60;1.00;;;;;28.27;22.94;101200.66;5077915;28;46169;-58
2022/06/01 11:36:30;;;;;;;;;0.80;0.80;;;;;27.95;22.79;101190.41;5035223;28;45370;-59
2022/06/01 11:39:10;;;;;;;;;1.00;1.00;;;;;27.91;23.60;101199.34;5034620;28;45551;-59
2022/06/01 11:41:39;;;;;;;;;2.40;2.40;;;;;27.62;24.28;101204.91;5035500;28;45464;-49
2022/06/01 11:44:14;;;;;;;;;3.00;1.60;;;;;27.48;23.52;101207.13;5035005;28;45383;-59
2022/06/01 11:46:51;;;;;;;;;2.00;2.00;;;;;27.39;24.00;101178.56;5035049;28;45497;-60
2022/06/01 11:49:34;;;;;;;;;3.00;1.60;;;;;27.30;23.55;101199.16;5035239;28;45351;-57
2022/06/01 11:52:41;;;;;;;;;2.00;2.00;;;;;27.18;23.42;101203.84;5035091;28;45417;-57
2022/06/01 11:55:15;;;;;;;;;1.60;1.60;;;;;27.09;23.31;101204.28;5035104;28;46293;-59
2022/06/01 11:57:44;;;;;;;;;1.40;1.40;;;;;27.06;23.55;101195.72;5034889;28;45411;-58